sensor_id;sensor_type;location;lat;lon;timestamp;P1;durP1;ratioP1;P2;durP2;ratioP2
48777;SDS011;34578;0.000;0.000;2024-02-23T00:03:29;1.58;;;0.60;;
48777;SDS011;34578;0.000;0.000;2024-02-23T00:08:30;3.33;;;1.20;;
48777;SDS011;34578;0.000;0.000;2024-02-23T00:13:30;3.03;;;1.00;;
48777;SDS011;34578;0.000;0.000;2024-02-23T00:18:31;4.95;;;0.73;;
48777;SDS011;34578;0.000;0.000;2024-02-23T00:23:31;1.53;;;0.80;;
48777;SDS011;34578;0.000;0.000;2024-02-23T00:28:32;3.23;;;0.93;;
48777;SDS011;34578;0.000;0.000;2024-02-23T00:33:32;3.47;;;0.60;;
48777;SDS011;34578;0.000;0.000;2024-02-23T00:38:33;4.85;;;1.08;;
48777;SDS011;34578;0.000;0.000;2024-02-23T00:43:40;4.43;;;1.00;;
48777;SDS011;34578;0.000;0.000;2024-02-23T00:48:41;3.28;;;1.10;;
48777;SDS011;34578;0.000;0.000;2024-02-23T00:53:41;3.77;;;0.63;;
48777;SDS011;34578;0.000;0.000;2024-02-23T00:58:42;1.35;;;0.40;;
48777;SDS011;34578;0.000;0.000;2024-02-23T01:03:42;2.80;;;0.63;;
48777;SDS011;34578;0.000;0.000;2024-02-23T01:08:42;1.23;;;0.60;;
48777;SDS011;34578;0.000;0.000;2024-02-23T01:13:43;3.05;;;1.17;;
48777;SDS011;34578;0.000;0.000;2024-02-23T01:18:44;1.42;;;0.50;;
48777;SDS011;34578;0.000;0.000;2024-02-23T01:23:44;4.03;;;0.80;;
48777;SDS011;34578;0.000;0.000;2024-02-23T01:28:45;1.83;;;0.67;;
48777;SDS011;34578;0.000;0.000;2024-02-23T01:33:45;3.00;;;0.70;;
48777;SDS011;34578;0.000;0.000;2024-02-23T01:38:45;8.27;;;1.10;;
48777;SDS011;34578;0.000;0.000;2024-02-23T01:43:46;4.60;;;0.68;;
48777;SDS011;34578;0.000;0.000;2024-02-23T01:48:47;1.53;;;0.60;;
48777;SDS011;34578;0.000;0.000;2024-02-23T01:53:47;1.35;;;0.60;;
48777;SDS011;34578;0.000;0.000;2024-02-23T01:58:48;2.90;;;0.50;;
48777;SDS011;34578;0.000;0.000;2024-02-23T02:03:49;2.35;;;0.47;;
48777;SDS011;34578;0.000;0.000;2024-02-23T02:08:50;2.07;;;0.70;;
48777;SDS011;34578;0.000;0.000;2024-02-23T02:13:50;0.80;;;0.30;;
48777;SDS011;34578;0.000;0.000;2024-02-23T02:18:51;2.37;;;0.70;;
48777;SDS011;34578;0.000;0.000;2024-02-23T02:23:51;2.80;;;0.80;;
48777;SDS011;34578;0.000;0.000;2024-02-23T02:28:51;1.87;;;0.60;;
48777;SDS011;34578;0.000;0.000;2024-02-23T02:33:52;1.65;;;0.52;;
48777;SDS011;34578;0.000;0.000;2024-02-23T02:38:52;3.30;;;0.47;;
48777;SDS011;34578;0.000;0.000;2024-02-23T02:43:53;2.13;;;0.70;;
48777;SDS011;34578;0.000;0.000;2024-02-23T02:48:53;1.93;;;0.50;;
48777;SDS011;34578;0.000;0.000;2024-02-23T02:53:53;3.23;;;0.80;;
48777;SDS011;34578;0.000;0.000;2024-02-23T02:58:54;2.33;;;0.70;;
48777;SDS011;34578;0.000;0.000;2024-02-23T03:03:55;2.78;;;0.95;;
48777;SDS011;34578;0.000;0.000;2024-02-23T03:08:56;1.63;;;0.67;;
48777;SDS011;34578;0.000;0.000;2024-02-23T03:13:56;4.28;;;0.75;;
48777;SDS011;34578;0.000;0.000;2024-02-23T03:18:56;2.03;;;0.63;;
48777;SDS011;34578;0.000;0.000;2024-02-23T03:23:57;3.10;;;0.53;;
48777;SDS011;34578;0.000;0.000;2024-02-23T03:28:57;3.30;;;0.60;;
48777;SDS011;34578;0.000;0.000;2024-02-23T03:33:57;3.23;;;0.60;;
48777;SDS011;34578;0.000;0.000;2024-02-23T03:38:58;2.83;;;0.53;;
48777;SDS011;34578;0.000;0.000;2024-02-23T03:43:58;1.67;;;0.33;;
48777;SDS011;34578;0.000;0.000;2024-02-23T03:48:59;0.97;;;0.40;;
48777;SDS011;34578;0.000;0.000;2024-02-23T03:53:59;3.77;;;0.50;;
48777;SDS011;34578;0.000;0.000;2024-02-23T03:58:59;3.23;;;0.60;;
48777;SDS011;34578;0.000;0.000;2024-02-23T04:04:00;2.10;;;0.40;;
48777;SDS011;34578;0.000;0.000;2024-02-23T04:09:00;1.47;;;0.97;;
48777;SDS011;34578;0.000;0.000;2024-02-23T04:14:00;2.07;;;0.30;;
48777;SDS011;34578;0.000;0.000;2024-02-23T04:19:01;1.33;;;0.32;;
48777;SDS011;34578;0.000;0.000;2024-02-23T04:24:01;1.50;;;0.50;;
48777;SDS011;34578;0.000;0.000;2024-02-23T04:29:02;1.30;;;0.40;;
48777;SDS011;34578;0.000;0.000;2024-02-23T04:34:02;0.80;;;0.37;;
48777;SDS011;34578;0.000;0.000;2024-02-23T04:39:02;1.53;;;0.60;;
48777;SDS011;34578;0.000;0.000;2024-02-23T04:44:04;6.50;;;0.40;;
48777;SDS011;34578;0.000;0.000;2024-02-23T04:49:04;1.13;;;0.30;;
48777;SDS011;34578;0.000;0.000;2024-02-23T04:54:04;3.37;;;0.57;;
48777;SDS011;34578;0.000;0.000;2024-02-23T04:59:05;0.60;;;0.30;;
48777;SDS011;34578;0.000;0.000;2024-02-23T05:04:06;4.78;;;0.63;;
48777;SDS011;34578;0.000;0.000;2024-02-23T05:09:06;0.80;;;0.30;;
48777;SDS011;34578;0.000;0.000;2024-02-23T05:14:09;1.25;;;0.30;;
48777;SDS011;34578;0.000;0.000;2024-02-23T05:19:09;5.10;;;0.50;;
48777;SDS011;34578;0.000;0.000;2024-02-23T05:24:10;0.77;;;0.30;;
48777;SDS011;34578;0.000;0.000;2024-02-23T05:29:11;1.13;;;0.40;;
48777;SDS011;34578;0.000;0.000;2024-02-23T05:34:12;2.22;;;0.40;;
48777;SDS011;34578;0.000;0.000;2024-02-23T05:39:13;2.88;;;0.50;;
48777;SDS011;34578;0.000;0.000;2024-02-23T05:44:15;3.90;;;0.40;;
48777;SDS011;34578;0.000;0.000;2024-02-23T05:49:15;6.63;;;0.70;;
48777;SDS011;34578;0.000;0.000;2024-02-23T05:54:16;5.90;;;1.03;;
48777;SDS011;34578;0.000;0.000;2024-02-23T05:59:16;4.63;;;0.77;;
48777;SDS011;34578;0.000;0.000;2024-02-23T06:04:16;2.77;;;0.70;;
48777;SDS011;34578;0.000;0.000;2024-02-23T06:09:17;4.90;;;0.77;;
48777;SDS011;34578;0.000;0.000;2024-02-23T06:14:17;3.97;;;0.50;;
48777;SDS011;34578;0.000;0.000;2024-02-23T06:19:17;6.43;;;1.40;;
48777;SDS011;34578;0.000;0.000;2024-02-23T06:24:18;3.03;;;0.60;;
48777;SDS011;34578;0.000;0.000;2024-02-23T06:29:19;4.32;;;0.60;;
48777;SDS011;34578;0.000;0.000;2024-02-23T06:34:20;5.73;;;1.27;;
48777;SDS011;34578;0.000;0.000;2024-02-23T06:39:20;3.33;;;0.57;;
48777;SDS011;34578;0.000;0.000;2024-02-23T06:44:20;6.83;;;0.97;;
48777;SDS011;34578;0.000;0.000;2024-02-23T06:49:21;7.17;;;1.03;;
48777;SDS011;34578;0.000;0.000;2024-02-23T06:54:21;9.00;;;1.00;;
48777;SDS011;34578;0.000;0.000;2024-02-23T06:59:21;2.90;;;0.60;;
48777;SDS011;34578;0.000;0.000;2024-02-23T07:04:24;5.20;;;1.10;;
48777;SDS011;34578;0.000;0.000;2024-02-23T07:09:25;5.75;;;0.80;;
48777;SDS011;34578;0.000;0.000;2024-02-23T07:14:25;4.20;;;0.85;;
48777;SDS011;34578;0.000;0.000;2024-02-23T07:19:26;2.03;;;0.80;;
48777;SDS011;34578;0.000;0.000;2024-02-23T07:24:26;2.13;;;0.70;;
48777;SDS011;34578;0.000;0.000;2024-02-23T07:29:27;3.78;;;0.60;;
48777;SDS011;34578;0.000;0.000;2024-02-23T07:34:27;2.57;;;1.07;;
48777;SDS011;34578;0.000;0.000;2024-02-23T07:39:27;1.30;;;0.63;;
48777;SDS011;34578;0.000;0.000;2024-02-23T07:44:28;3.67;;;1.20;;
48777;SDS011;34578;0.000;0.000;2024-02-23T07:49:28;2.87;;;1.33;;
48777;SDS011;34578;0.000;0.000;2024-02-23T07:54:28;4.57;;;1.27;;
48777;SDS011;34578;0.000;0.000;2024-02-23T07:59:29;9.10;;;1.98;;
48777;SDS011;34578;0.000;0.000;2024-02-23T08:04:29;3.27;;;1.23;;
48777;SDS011;34578;0.000;0.000;2024-02-23T08:09:30;3.07;;;1.70;;
48777;SDS011;34578;0.000;0.000;2024-02-23T08:14:30;6.13;;;2.20;;
48777;SDS011;34578;0.000;0.000;2024-02-23T08:19:30;7.87;;;2.40;;
48777;SDS011;34578;0.000;0.000;2024-02-23T08:24:31;6.90;;;1.70;;
48777;SDS011;34578;0.000;0.000;2024-02-23T08:29:31;7.15;;;2.10;;
48777;SDS011;34578;0.000;0.000;2024-02-23T08:34:31;4.40;;;2.20;;
48777;SDS011;34578;0.000;0.000;2024-02-23T08:39:32;6.10;;;1.77;;
48777;SDS011;34578;0.000;0.000;2024-02-23T08:44:34;5.50;;;1.75;;
48777;SDS011;34578;0.000;0.000;2024-02-23T08:49:35;12.20;;;1.60;;
48777;SDS011;34578;0.000;0.000;2024-02-23T08:54:37;6.28;;;1.85;;
48777;SDS011;34578;0.000;0.000;2024-02-23T08:59:39;3.80;;;1.90;;
48777;SDS011;34578;0.000;0.000;2024-02-23T09:04:39;5.70;;;1.60;;
48777;SDS011;34578;0.000;0.000;2024-02-23T09:09:40;4.13;;;1.38;;
48777;SDS011;34578;0.000;0.000;2024-02-23T09:14:40;5.03;;;1.43;;
48777;SDS011;34578;0.000;0.000;2024-02-23T09:19:41;5.20;;;1.30;;
48777;SDS011;34578;0.000;0.000;2024-02-23T09:24:41;2.80;;;1.40;;
48777;SDS011;34578;0.000;0.000;2024-02-23T09:29:42;3.47;;;1.50;;
48777;SDS011;34578;0.000;0.000;2024-02-23T09:34:43;2.70;;;1.37;;
48777;SDS011;34578;0.000;0.000;2024-02-23T09:39:43;2.42;;;1.50;;
48777;SDS011;34578;0.000;0.000;2024-02-23T09:44:43;3.87;;;1.30;;
48777;SDS011;34578;0.000;0.000;2024-02-23T09:49:46;3.70;;;1.50;;
48777;SDS011;34578;0.000;0.000;2024-02-23T09:54:50;2.92;;;1.15;;
48777;SDS011;34578;0.000;0.000;2024-02-23T09:59:51;4.75;;;1.50;;
48777;SDS011;34578;0.000;0.000;2024-02-23T10:04:51;3.72;;;1.17;;
48777;SDS011;34578;0.000;0.000;2024-02-23T10:09:55;2.75;;;1.10;;
48777;SDS011;34578;0.000;0.000;2024-02-23T10:14:56;2.30;;;1.50;;
48777;SDS011;34578;0.000;0.000;2024-02-23T10:19:56;4.70;;;1.10;;
48777;SDS011;34578;0.000;0.000;2024-02-23T10:24:59;2.92;;;1.20;;
48777;SDS011;34578;0.000;0.000;2024-02-23T10:29:59;2.77;;;1.03;;
48777;SDS011;34578;0.000;0.000;2024-02-23T10:35:00;4.40;;;1.00;;
48777;SDS011;34578;0.000;0.000;2024-02-23T10:40:04;3.88;;;1.13;;
48777;SDS011;34578;0.000;0.000;2024-02-23T10:45:09;2.22;;;1.13;;
48777;SDS011;34578;0.000;0.000;2024-02-23T10:50:09;1.67;;;0.93;;
48777;SDS011;34578;0.000;0.000;2024-02-23T10:55:14;1.70;;;0.82;;
48777;SDS011;34578;0.000;0.000;2024-02-23T11:00:15;1.75;;;0.90;;
48777;SDS011;34578;0.000;0.000;2024-02-23T11:05:18;1.27;;;0.93;;
48777;SDS011;34578;0.000;0.000;2024-02-23T11:10:19;0.98;;;0.70;;
48777;SDS011;34578;0.000;0.000;2024-02-23T11:15:29;1.77;;;0.90;;
48777;SDS011;34578;0.000;0.000;2024-02-23T11:20:34;2.58;;;1.30;;
48777;SDS011;34578;0.000;0.000;2024-02-23T11:25:34;3.83;;;0.77;;
48777;SDS011;34578;0.000;0.000;2024-02-23T11:30:35;1.77;;;0.80;;
48777;SDS011;34578;0.000;0.000;2024-02-23T11:35:36;2.03;;;1.00;;
48777;SDS011;34578;0.000;0.000;2024-02-23T11:40:49;0.80;;;0.68;;
48777;SDS011;34578;0.000;0.000;2024-02-23T11:45:52;4.80;;;1.05;;
48777;SDS011;34578;0.000;0.000;2024-02-23T11:50:52;10.67;;;1.23;;
48777;SDS011;34578;0.000;0.000;2024-02-23T11:55:53;1.97;;;0.63;;
48777;SDS011;34578;0.000;0.000;2024-02-23T12:00:53;1.52;;;0.80;;
48777;SDS011;34578;0.000;0.000;2024-02-23T12:05:54;1.38;;;0.80;;
48777;SDS011;34578;0.000;0.000;2024-02-23T12:10:56;1.30;;;0.70;;
48777;SDS011;34578;0.000;0.000;2024-02-23T12:16:00;1.42;;;0.80;;
48777;SDS011;34578;0.000;0.000;2024-02-23T12:21:01;1.23;;;0.65;;
48777;SDS011;34578;0.000;0.000;2024-02-23T12:26:02;8.48;;;1.13;;
48777;SDS011;34578;0.000;0.000;2024-02-23T12:31:03;3.53;;;1.15;;
48777;SDS011;34578;0.000;0.000;2024-02-23T12:36:04;9.25;;;1.27;;
48777;SDS011;34578;0.000;0.000;2024-02-23T12:41:05;8.73;;;1.80;;
48777;SDS011;34578;0.000;0.000;2024-02-23T12:46:06;2.92;;;0.95;;
48777;SDS011;34578;0.000;0.000;2024-02-23T12:51:08;4.70;;;0.88;;
48777;SDS011;34578;0.000;0.000;2024-02-23T12:56:09;1.33;;;0.70;;
48777;SDS011;34578;0.000;0.000;2024-02-23T13:01:11;2.63;;;0.73;;
48777;SDS011;34578;0.000;0.000;2024-02-23T13:06:12;6.85;;;1.23;;
48777;SDS011;34578;0.000;0.000;2024-02-23T13:11:13;3.95;;;0.85;;
48777;SDS011;34578;0.000;0.000;2024-02-23T13:16:14;5.55;;;0.70;;
48777;SDS011;34578;0.000;0.000;2024-02-23T13:21:15;5.80;;;1.42;;
48777;SDS011;34578;0.000;0.000;2024-02-23T13:26:15;7.07;;;1.45;;
48777;SDS011;34578;0.000;0.000;2024-02-23T13:31:16;5.32;;;1.00;;
48777;SDS011;34578;0.000;0.000;2024-02-23T13:36:17;5.65;;;0.80;;
48777;SDS011;34578;0.000;0.000;2024-02-23T13:41:17;6.60;;;1.23;;
48777;SDS011;34578;0.000;0.000;2024-02-23T13:46:18;3.47;;;1.30;;
48777;SDS011;34578;0.000;0.000;2024-02-23T13:51:18;2.05;;;0.70;;
48777;SDS011;34578;0.000;0.000;2024-02-23T13:56:19;7.10;;;1.17;;
48777;SDS011;34578;0.000;0.000;2024-02-23T14:01:19;5.97;;;1.03;;
48777;SDS011;34578;0.000;0.000;2024-02-23T14:06:19;3.00;;;1.17;;
48777;SDS011;34578;0.000;0.000;2024-02-23T14:11:20;4.63;;;1.20;;
48777;SDS011;34578;0.000;0.000;2024-02-23T14:16:20;11.45;;;1.10;;
48777;SDS011;34578;0.000;0.000;2024-02-23T14:21:21;4.27;;;0.77;;
48777;SDS011;34578;0.000;0.000;2024-02-23T14:26:22;7.18;;;1.10;;
48777;SDS011;34578;0.000;0.000;2024-02-23T14:31:23;2.73;;;0.80;;
48777;SDS011;34578;0.000;0.000;2024-02-23T14:36:23;8.30;;;1.23;;
48777;SDS011;34578;0.000;0.000;2024-02-23T14:41:24;4.53;;;0.95;;
48777;SDS011;34578;0.000;0.000;2024-02-23T14:46:24;14.17;;;2.23;;
48777;SDS011;34578;0.000;0.000;2024-02-23T14:51:25;5.97;;;1.40;;
48777;SDS011;34578;0.000;0.000;2024-02-23T14:56:25;14.02;;;1.98;;
48777;SDS011;34578;0.000;0.000;2024-02-23T15:01:25;8.93;;;1.53;;
48777;SDS011;34578;0.000;0.000;2024-02-23T15:06:26;7.03;;;1.53;;
48777;SDS011;34578;0.000;0.000;2024-02-23T15:11:27;5.80;;;1.80;;
48777;SDS011;34578;0.000;0.000;2024-02-23T15:16:28;11.27;;;4.17;;
48777;SDS011;34578;0.000;0.000;2024-02-23T15:21:29;8.18;;;3.60;;
48777;SDS011;34578;0.000;0.000;2024-02-23T15:26:29;5.93;;;2.80;;
48777;SDS011;34578;0.000;0.000;2024-02-23T15:31:30;5.43;;;2.58;;
48777;SDS011;34578;0.000;0.000;2024-02-23T15:36:31;7.90;;;2.38;;
48777;SDS011;34578;0.000;0.000;2024-02-23T15:41:34;7.77;;;1.87;;
48777;SDS011;34578;0.000;0.000;2024-02-23T15:46:35;4.22;;;1.77;;
48777;SDS011;34578;0.000;0.000;2024-02-23T15:51:35;5.73;;;2.03;;
48777;SDS011;34578;0.000;0.000;2024-02-23T15:56:37;6.93;;;3.20;;
48777;SDS011;34578;0.000;0.000;2024-02-23T16:01:38;7.80;;;1.67;;
48777;SDS011;34578;0.000;0.000;2024-02-23T16:06:38;6.10;;;1.58;;
48777;SDS011;34578;0.000;0.000;2024-02-23T16:11:39;6.55;;;1.98;;
48777;SDS011;34578;0.000;0.000;2024-02-23T16:16:44;5.07;;;1.77;;
48777;SDS011;34578;0.000;0.000;2024-02-23T16:21:45;7.27;;;1.87;;
48777;SDS011;34578;0.000;0.000;2024-02-23T16:26:46;3.90;;;1.17;;
48777;SDS011;34578;0.000;0.000;2024-02-23T16:31:47;6.23;;;1.60;;
48777;SDS011;34578;0.000;0.000;2024-02-23T16:36:47;6.23;;;1.60;;
48777;SDS011;34578;0.000;0.000;2024-02-23T16:41:47;2.80;;;1.20;;
48777;SDS011;34578;0.000;0.000;2024-02-23T16:46:48;3.83;;;1.13;;
48777;SDS011;34578;0.000;0.000;2024-02-23T16:51:49;2.63;;;1.30;;
48777;SDS011;34578;0.000;0.000;2024-02-23T16:56:49;5.93;;;1.37;;
48777;SDS011;34578;0.000;0.000;2024-02-23T17:01:50;4.27;;;0.80;;
48777;SDS011;34578;0.000;0.000;2024-02-23T17:06:50;5.65;;;1.20;;
48777;SDS011;34578;0.000;0.000;2024-02-23T17:11:50;2.07;;;1.00;;
48777;SDS011;34578;0.000;0.000;2024-02-23T17:16:51;5.90;;;1.10;;
48777;SDS011;34578;0.000;0.000;2024-02-23T17:21:51;3.30;;;0.83;;
48777;SDS011;34578;0.000;0.000;2024-02-23T17:26:51;4.10;;;1.10;;
48777;SDS011;34578;0.000;0.000;2024-02-23T17:31:52;2.90;;;1.23;;
48777;SDS011;34578;0.000;0.000;2024-02-23T17:36:52;4.73;;;0.83;;
48777;SDS011;34578;0.000;0.000;2024-02-23T17:41:52;1.53;;;0.57;;
48777;SDS011;34578;0.000;0.000;2024-02-23T17:46:53;1.07;;;0.60;;
48777;SDS011;34578;0.000;0.000;2024-02-23T17:51:54;4.75;;;1.10;;
48777;SDS011;34578;0.000;0.000;2024-02-23T17:56:55;15.73;;;1.37;;
48777;SDS011;34578;0.000;0.000;2024-02-23T18:01:55;7.43;;;1.53;;
48777;SDS011;34578;0.000;0.000;2024-02-23T18:06:55;16.07;;;2.23;;
48777;SDS011;34578;0.000;0.000;2024-02-23T18:11:56;11.48;;;1.73;;
48777;SDS011;34578;0.000;0.000;2024-02-23T18:16:56;8.67;;;1.30;;
48777;SDS011;34578;0.000;0.000;2024-02-23T18:30:39;14.43;;;1.90;;
48777;SDS011;34578;0.000;0.000;2024-02-23T18:35:40;30.40;;;5.40;;
48777;SDS011;34578;0.000;0.000;2024-02-23T18:40:40;25.77;;;5.90;;
48777;SDS011;34578;0.000;0.000;2024-02-23T18:45:41;17.85;;;4.47;;
48777;SDS011;34578;0.000;0.000;2024-02-23T18:50:41;16.50;;;4.17;;
48777;SDS011;34578;0.000;0.000;2024-02-23T18:55:41;19.45;;;3.92;;
48777;SDS011;34578;0.000;0.000;2024-02-23T19:00:42;18.90;;;4.60;;
48777;SDS011;34578;0.000;0.000;2024-02-23T19:05:42;22.00;;;5.80;;
48777;SDS011;34578;0.000;0.000;2024-02-23T19:10:43;25.27;;;4.43;;
48777;SDS011;34578;0.000;0.000;2024-02-23T19:15:43;23.33;;;5.35;;
48777;SDS011;34578;0.000;0.000;2024-02-23T19:20:45;13.52;;;4.03;;
48777;SDS011;34578;0.000;0.000;2024-02-23T19:25:45;16.90;;;4.97;;
48777;SDS011;34578;0.000;0.000;2024-02-23T19:30:45;15.70;;;3.57;;
48777;SDS011;34578;0.000;0.000;2024-02-23T19:35:47;13.70;;;3.88;;
48777;SDS011;34578;0.000;0.000;2024-02-23T19:40:47;15.05;;;3.80;;
48777;SDS011;34578;0.000;0.000;2024-02-23T19:45:48;24.30;;;5.15;;
48777;SDS011;34578;0.000;0.000;2024-02-23T19:50:49;17.60;;;4.53;;
48777;SDS011;34578;0.000;0.000;2024-02-23T19:55:50;18.35;;;4.57;;
48777;SDS011;34578;0.000;0.000;2024-02-23T20:00:50;13.00;;;4.10;;
48777;SDS011;34578;0.000;0.000;2024-02-23T20:05:51;12.75;;;4.38;;
48777;SDS011;34578;0.000;0.000;2024-02-23T20:10:51;13.20;;;3.90;;
48777;SDS011;34578;0.000;0.000;2024-02-23T20:15:52;14.90;;;3.78;;
48777;SDS011;34578;0.000;0.000;2024-02-23T20:20:52;16.85;;;4.13;;
48777;SDS011;34578;0.000;0.000;2024-02-23T20:25:53;15.80;;;4.37;;
48777;SDS011;34578;0.000;0.000;2024-02-23T20:30:54;28.45;;;5.25;;
48777;SDS011;34578;0.000;0.000;2024-02-23T20:35:57;24.40;;;3.92;;
48777;SDS011;34578;0.000;0.000;2024-02-23T20:40:57;16.73;;;4.40;;
48777;SDS011;34578;0.000;0.000;2024-02-23T20:45:57;30.03;;;3.63;;
48777;SDS011;34578;0.000;0.000;2024-02-23T20:50:58;13.57;;;3.20;;
48777;SDS011;34578;0.000;0.000;2024-02-23T20:56:00;16.77;;;3.25;;
48777;SDS011;34578;0.000;0.000;2024-02-23T21:01:00;14.98;;;4.95;;
48777;SDS011;34578;0.000;0.000;2024-02-23T21:06:01;9.13;;;3.37;;
48777;SDS011;34578;0.000;0.000;2024-02-23T21:11:01;15.60;;;3.88;;
48777;SDS011;34578;0.000;0.000;2024-02-23T21:16:03;7.90;;;2.95;;
48777;SDS011;34578;0.000;0.000;2024-02-23T21:21:04;6.60;;;3.03;;
48777;SDS011;34578;0.000;0.000;2024-02-23T21:26:04;9.73;;;3.33;;
48777;SDS011;34578;0.000;0.000;2024-02-23T21:31:05;8.17;;;2.90;;
48777;SDS011;34578;0.000;0.000;2024-02-23T21:36:05;12.47;;;3.10;;
48777;SDS011;34578;0.000;0.000;2024-02-23T21:41:05;5.38;;;2.60;;
48777;SDS011;34578;0.000;0.000;2024-02-23T21:46:06;6.65;;;2.42;;
48777;SDS011;34578;0.000;0.000;2024-02-23T21:51:12;15.45;;;3.42;;
48777;SDS011;34578;0.000;0.000;2024-02-23T21:56:12;10.35;;;3.83;;
48777;SDS011;34578;0.000;0.000;2024-02-23T22:01:13;9.80;;;3.30;;
48777;SDS011;34578;0.000;0.000;2024-02-23T22:06:13;6.57;;;2.40;;
48777;SDS011;34578;0.000;0.000;2024-02-23T22:11:14;8.98;;;3.20;;
48777;SDS011;34578;0.000;0.000;2024-02-23T22:16:14;7.80;;;2.33;;
48777;SDS011;34578;0.000;0.000;2024-02-23T22:21:15;6.83;;;2.63;;
48777;SDS011;34578;0.000;0.000;2024-02-23T22:26:16;5.50;;;2.20;;
48777;SDS011;34578;0.000;0.000;2024-02-23T22:31:16;7.45;;;2.38;;
48777;SDS011;34578;0.000;0.000;2024-02-23T22:36:17;9.77;;;1.90;;
48777;SDS011;34578;0.000;0.000;2024-02-23T22:41:17;5.23;;;2.37;;
48777;SDS011;34578;0.000;0.000;2024-02-23T22:46:17;6.60;;;2.27;;
48777;SDS011;34578;0.000;0.000;2024-02-23T22:51:18;7.00;;;2.20;;
48777;SDS011;34578;0.000;0.000;2024-02-23T22:56:18;4.83;;;2.53;;
48777;SDS011;34578;0.000;0.000;2024-02-23T23:01:19;3.83;;;1.93;;
48777;SDS011;34578;0.000;0.000;2024-02-23T23:06:19;5.57;;;2.03;;
48777;SDS011;34578;0.000;0.000;2024-02-23T23:11:19;5.07;;;1.87;;
48777;SDS011;34578;0.000;0.000;2024-02-23T23:16:20;5.23;;;2.10;;
48777;SDS011;34578;0.000;0.000;2024-02-23T23:21:20;7.53;;;2.10;;
48777;SDS011;34578;0.000;0.000;2024-02-23T23:26:20;4.40;;;1.83;;
48777;SDS011;34578;0.000;0.000;2024-02-23T23:31:21;5.28;;;1.73;;
48777;SDS011;34578;0.000;0.000;2024-02-23T23:36:22;6.57;;;2.38;;
48777;SDS011;34578;0.000;0.000;2024-02-23T23:41:23;5.07;;;1.70;;
48777;SDS011;34578;0.000;0.000;2024-02-23T23:46:23;5.50;;;3.30;;
48777;SDS011;34578;0.000;0.000;2024-02-23T23:51:24;7.73;;;1.50;;
48777;SDS011;34578;0.000;0.000;2024-02-23T23:56:24;4.75;;;2.30;;
